createdAt,value
2022-11-21T07:48:33.872Z,5.12
2022-11-21T07:51:05.878Z,5.29
2022-11-21T07:53:33.917Z,5.50
2022-11-21T07:56:01.806Z,5.57
2022-11-21T07:58:29.757Z,5.64
2022-11-21T08:00:57.616Z,5.56
2022-11-21T08:03:25.511Z,5.67
2022-11-21T08:05:54.719Z,5.68
2022-11-21T08:08:22.601Z,5.58
2022-11-21T08:10:51.533Z,5.49
2022-11-21T08:13:19.536Z,5.50
2022-11-21T08:15:47.371Z,5.52
2022-11-21T08:18:19.044Z,5.46
2022-11-21T08:20:47.115Z,5.40
2022-11-21T08:23:16.800Z,5.35
2022-11-21T08:25:45.282Z,5.32
2022-11-21T08:28:13.552Z,5.34
2022-11-21T08:30:41.907Z,5.33
2022-11-21T08:33:09.913Z,5.32
2022-11-21T08:35:39.091Z,5.16
2022-11-21T08:38:07.300Z,5.17
2022-11-21T08:40:37.442Z,5.12
2022-11-21T08:43:07.028Z,5.09
2022-11-21T08:45:35.694Z,4.91
2022-11-21T08:48:04.778Z,5.07
2022-11-21T08:50:33.185Z,5.31
2022-11-21T08:53:02.500Z,5.30
2022-11-21T08:55:30.638Z,5.27
2022-11-21T08:57:59.988Z,5.25
2022-11-21T09:00:27.915Z,5.38
2022-11-21T09:02:55.763Z,5.46
2022-11-21T09:05:23.598Z,5.34
2022-11-21T09:07:58.389Z,5.49
2022-11-21T09:10:27.134Z,5.48
2022-11-21T09:12:54.998Z,5.49
2022-11-21T09:15:41.742Z,5.42
2022-11-21T09:18:09.674Z,5.62
2022-11-21T09:20:41.554Z,5.64
2022-11-21T09:23:11.028Z,5.65
2022-11-21T09:25:39.452Z,5.59
2022-11-21T09:28:09.302Z,5.60
2022-11-21T09:30:39.383Z,5.59
2022-11-21T09:33:08.754Z,5.61
2022-11-21T09:35:36.862Z,5.62
2022-11-21T09:38:05.628Z,5.63
2022-11-21T09:40:35.238Z,5.70
2022-11-21T09:43:27.707Z,5.81
2022-11-21T09:46:03.862Z,5.85
2022-11-21T09:48:35.784Z,5.86
2022-11-21T09:51:08.781Z,5.97
2022-11-21T09:53:39.818Z,6.01
2022-11-21T09:56:12.269Z,5.96
2022-11-21T09:58:44.699Z,5.77
2022-11-21T10:01:14.971Z,5.83
2022-11-21T10:03:45.022Z,5.87
2022-11-21T10:06:20.441Z,5.77
2022-11-21T10:08:56.263Z,5.78
2022-11-21T10:11:59.177Z,5.76
2022-11-21T10:14:40.046Z,5.54
2022-11-21T10:17:22.343Z,5.30
2022-11-21T10:20:09.735Z,5.35
2022-11-21T10:22:54.857Z,5.41
2022-11-21T10:25:27.584Z,5.44
2022-11-21T10:27:58.728Z,5.37
2022-11-21T10:30:26.575Z,5.37
2022-11-21T10:32:59.359Z,5.43
2022-11-21T10:35:36.221Z,5.45
2022-11-21T10:38:14.553Z,5.49
2022-11-21T10:40:47.372Z,5.34
2022-11-21T10:43:44.835Z,5.32
2022-11-21T10:46:12.723Z,5.36
2022-11-21T10:48:42.164Z,5.28
2022-11-21T10:51:27.550Z,5.31
2022-11-21T10:54:23.560Z,5.39
2022-11-21T10:56:53.140Z,5.41
2022-11-21T10:59:30.129Z,5.39
2022-11-21T11:02:01.066Z,5.38
2022-11-21T11:04:37.514Z,5.36
2022-11-21T11:07:24.014Z,5.49
2022-11-21T11:09:53.535Z,5.38
2022-11-21T11:12:25.227Z,5.39
2022-11-21T11:14:55.428Z,5.42
2022-11-21T11:17:31.240Z,5.32
2022-11-21T11:20:06.585Z,5.24
2022-11-21T11:22:35.000Z,5.20
2022-11-21T11:25:04.985Z,5.24
2022-11-21T11:27:32.852Z,5.30
2022-11-21T11:30:07.689Z,5.29
2022-11-21T11:32:40.952Z,5.39
2022-11-21T11:35:23.104Z,5.39
2022-11-21T11:38:02.767Z,5.52
2022-11-21T11:40:36.979Z,5.54
2022-11-21T11:43:38.284Z,5.57
2022-11-21T11:46:48.540Z,5.65
2022-11-21T11:49:24.090Z,5.75
2022-11-21T11:51:57.733Z,5.87
2022-11-21T11:54:31.042Z,5.56
2022-11-21T11:56:59.944Z,5.52
2022-11-21T11:59:32.514Z,5.52
2022-11-21T12:02:10.341Z,5.45
2022-11-21T12:04:47.186Z,5.50
2022-11-21T12:10:19.202Z,5.43
2022-11-21T12:12:51.420Z,5.33
2022-11-21T12:15:42.136Z,5.36
2022-11-21T12:18:21.405Z,5.62
2022-11-21T12:20:59.307Z,5.50
2022-11-21T12:23:33.158Z,5.43
2022-11-21T12:26:13.618Z,5.22
2022-11-21T12:29:03.032Z,5.28
2022-11-21T12:31:41.960Z,5.30
2022-11-21T12:34:21.839Z,5.34
2022-11-21T12:36:58.358Z,5.32
2022-11-21T12:39:57.254Z,5.34
2022-11-21T12:42:58.473Z,5.32
2022-11-21T12:45:32.128Z,5.19
2022-11-21T12:48:35.711Z,5.09
2022-11-21T12:51:40.948Z,5.10
2022-11-21T12:54:34.316Z,5.21
2022-11-21T12:57:11.509Z,5.23
2022-11-21T12:59:51.828Z,5.21
2022-11-21T13:02:29.833Z,5.26
2022-11-21T13:04:59.501Z,5.30
2022-11-21T13:07:30.825Z,5.30
2022-11-21T13:10:01.500Z,5.13
2022-11-21T13:12:39.636Z,5.10
2022-11-21T13:15:19.241Z,4.97
2022-11-21T13:17:55.151Z,4.68
2022-11-21T13:20:28.610Z,4.74
2022-11-21T13:22:58.631Z,4.82
2022-11-21T13:25:48.788Z,4.77
2022-11-21T13:28:35.742Z,4.82
2022-11-21T13:31:24.945Z,4.74
2022-11-21T13:33:53.051Z,4.89
2022-11-21T13:36:41.943Z,4.89
2022-11-21T13:39:30.775Z,4.73
2022-11-21T13:42:30.398Z,4.76
2022-11-21T13:45:00.928Z,4.82
2022-11-21T13:48:01.109Z,4.86
2022-11-21T13:51:10.041Z,4.97
2022-11-21T13:54:07.488Z,5.04
2022-11-21T13:56:42.002Z,4.90
2022-11-21T13:59:30.837Z,4.90
2022-11-21T14:02:45.167Z,4.86
2022-11-21T14:05:24.085Z,4.82
2022-11-21T14:07:52.190Z,4.80
2022-11-21T14:10:33.546Z,4.76
2022-11-21T14:13:03.339Z,4.71
2022-11-21T14:15:39.631Z,4.80
2022-11-21T14:18:21.510Z,4.86
2022-11-21T14:20:53.854Z,4.85
2022-11-21T14:23:24.106Z,4.90
2022-11-21T14:25:55.783Z,4.83
2022-11-21T14:28:26.333Z,4.82
2022-11-21T14:30:59.127Z,4.93
2022-11-21T14:33:33.649Z,4.82
2022-11-21T14:36:07.359Z,4.78
2022-11-21T14:38:41.692Z,4.77
2022-11-21T14:41:31.241Z,4.74
2022-11-21T14:44:17.120Z,4.68
2022-11-21T14:46:47.480Z,4.63
2022-11-21T14:49:30.441Z,4.78
2022-11-21T14:52:16.412Z,4.75
2022-11-21T14:55:22.200Z,4.79
2022-11-21T14:57:42.384Z,4.71
2022-11-21T15:00:43.416Z,4.82
2022-11-21T15:03:04.944Z,4.73
2022-11-21T15:08:55.804Z,4.72
2022-11-21T15:11:13.925Z,4.98
2022-11-21T15:14:12.404Z,5.04
2022-11-21T15:16:32.324Z,5.24
2022-11-21T15:19:00.288Z,5.31
2022-11-21T15:21:29.685Z,5.37
2022-11-21T15:23:57.532Z,5.41
2022-11-21T15:26:31.506Z,5.50
2022-11-21T15:29:01.088Z,5.41
2022-11-21T15:31:29.454Z,5.40
2022-11-21T15:37:03.523Z,5.34
2022-11-21T15:39:31.771Z,5.41
2022-11-21T15:42:30.293Z,5.48
2022-11-21T15:45:00.393Z,5.38
2022-11-21T15:47:28.590Z,5.52
2022-11-21T15:49:56.656Z,5.55
2022-11-21T15:52:25.938Z,5.47
2022-11-21T15:54:53.752Z,5.47
2022-11-21T15:57:22.303Z,5.44
2022-11-21T15:59:50.797Z,5.53
2022-11-21T16:02:18.643Z,5.52
2022-11-21T16:04:46.644Z,5.55
2022-11-21T16:07:14.529Z,5.50
2022-11-21T16:09:44.945Z,5.59
2022-11-21T16:12:12.774Z,5.51
2022-11-21T16:14:40.644Z,5.57
2022-11-21T16:17:09.169Z,5.59
2022-11-21T16:19:37.053Z,5.65
2022-11-21T16:22:04.921Z,5.71
2022-11-21T16:24:32.767Z,5.22
2022-11-21T16:27:02.457Z,5.66
2022-11-21T16:29:30.749Z,5.72
2022-11-21T16:31:58.950Z,5.78
2022-11-21T16:34:27.535Z,5.82
2022-11-21T16:36:56.292Z,5.82
2022-11-21T16:39:24.242Z,5.80
2022-11-21T16:41:52.048Z,5.78
2022-11-21T16:44:21.251Z,5.77
2022-11-21T16:46:51.605Z,5.71
2022-11-21T16:49:20.293Z,5.64
2022-11-21T16:51:48.132Z,5.47
2022-11-21T16:54:16.231Z,5.32
2022-11-21T16:56:44.062Z,5.06
2022-11-21T16:59:12.103Z,4.79
2022-11-21T17:01:41.458Z,4.59
2022-11-21T17:04:15.644Z,4.52
2022-11-21T17:06:45.018Z,4.37
2022-11-21T17:09:13.109Z,4.32
2022-11-21T17:11:40.942Z,4.39
2022-11-21T17:14:09.416Z,4.47
2022-11-21T17:16:37.751Z,4.52
2022-11-21T17:19:07.521Z,4.49
2022-11-21T17:21:35.482Z,4.31
2022-11-21T17:24:03.546Z,4.26
2022-11-21T17:26:31.421Z,4.29
2022-11-21T17:29:00.771Z,4.33
2022-11-21T17:31:29.277Z,4.37
2022-11-21T17:33:57.777Z,4.34
2022-11-21T17:36:28.734Z,4.41
2022-11-21T17:38:56.734Z,4.43
2022-11-21T17:41:25.995Z,4.41
2022-11-21T17:43:56.065Z,4.40
2022-11-21T17:46:25.477Z,4.45
2022-11-21T17:48:57.780Z,4.47
2022-11-21T17:51:30.003Z,4.46
2022-11-21T17:53:59.566Z,4.45
2022-11-21T17:56:29.030Z,4.50
2022-11-21T17:58:57.431Z,4.54
2022-11-21T18:01:25.768Z,4.59
2022-11-21T18:03:57.241Z,4.58
2022-11-21T18:06:27.539Z,4.62
2022-11-21T18:08:57.235Z,4.58
2022-11-21T18:11:28.178Z,4.56
2022-11-21T18:13:56.038Z,4.41
2022-11-21T18:16:26.633Z,4.47
2022-11-21T18:18:54.502Z,4.40
2022-11-21T18:21:24.195Z,4.38
2022-11-21T18:23:54.494Z,4.35
2022-11-21T18:26:24.424Z,4.36
2022-11-21T18:29:13.510Z,4.33
2022-11-21T18:31:42.854Z,4.33
2022-11-21T18:34:12.159Z,4.30
2022-11-21T18:36:40.081Z,4.29
2022-11-21T18:39:14.507Z,4.25
2022-11-21T18:41:43.310Z,4.21
2022-11-21T18:44:14.600Z,4.18
2022-11-21T18:46:45.038Z,4.22
2022-11-21T18:49:12.998Z,4.21
2022-11-21T18:51:40.870Z,4.22
2022-11-21T18:54:11.178Z,4.24
2022-11-21T18:56:40.690Z,4.27
2022-11-21T18:59:09.050Z,4.31
2022-11-21T19:01:39.411Z,4.35
2022-11-21T19:04:07.459Z,4.37
2022-11-21T19:06:35.723Z,4.43
2022-11-21T19:09:03.664Z,4.38
2022-11-21T19:11:32.914Z,4.39
2022-11-21T19:14:01.437Z,4.36
2022-11-21T19:16:31.307Z,4.36
2022-11-21T19:19:32.423Z,4.36
2022-11-21T19:21:47.335Z,4.38
2022-11-21T19:24:16.078Z,4.43
2022-11-21T19:26:45.339Z,4.41
2022-11-21T19:29:13.291Z,4.45
2022-11-21T19:31:45.799Z,4.43
2022-11-21T19:34:14.733Z,4.43
2022-11-21T19:36:43.348Z,4.37
2022-11-21T19:39:11.343Z,4.34
2022-11-21T19:41:39.282Z,4.32
2022-11-21T19:44:08.513Z,4.33
2022-11-21T19:46:38.928Z,4.31
2022-11-21T19:49:08.437Z,4.32
2022-11-21T19:51:38.374Z,4.35
2022-11-21T19:54:07.751Z,4.35
2022-11-21T19:56:36.812Z,4.35
2022-11-21T19:59:04.951Z,4.33
2022-11-21T20:01:35.553Z,4.35
2022-11-21T20:04:05.215Z,4.32
2022-11-21T20:06:34.844Z,4.30
2022-11-21T20:09:05.050Z,4.28
2022-11-21T20:11:33.658Z,4.26
2022-11-21T20:14:01.590Z,4.24
2022-11-21T20:16:31.863Z,4.24
2022-11-21T20:19:02.991Z,4.30
2022-11-21T20:21:31.511Z,4.29
2022-11-21T20:23:59.783Z,4.28
2022-11-21T20:26:28.437Z,4.31
2022-11-21T20:28:57.129Z,4.33
2022-11-21T20:31:27.166Z,4.35
2022-11-21T20:36:46.823Z,4.30
2022-11-21T20:39:17.272Z,4.26
2022-11-21T20:41:46.451Z,4.18
2022-11-21T20:47:03.943Z,4.27
2022-11-21T20:49:32.132Z,4.27
2022-11-21T20:54:49.391Z,4.27
2022-11-21T20:57:17.409Z,4.27
2022-11-21T20:59:45.289Z,4.26
2022-11-21T21:02:14.337Z,4.23
2022-11-21T21:04:42.503Z,4.21
2022-11-21T21:07:11.858Z,4.19
2022-11-21T21:09:39.772Z,4.20
2022-11-21T21:12:07.857Z,4.20
2022-11-21T21:14:35.680Z,4.21
2022-11-21T21:17:03.484Z,4.23
2022-11-21T21:19:31.571Z,4.29
2022-11-21T21:21:59.679Z,4.37
2022-11-21T21:24:28.886Z,4.43
2022-11-21T21:26:56.708Z,4.43
2022-11-21T21:29:24.531Z,4.32
2022-11-21T21:31:53.080Z,4.31
2022-11-21T21:34:22.236Z,4.31
2022-11-21T21:36:50.835Z,4.30
2022-11-21T21:39:18.778Z,4.29
2022-11-21T21:41:48.271Z,4.26
2022-11-21T21:44:17.228Z,4.24
2022-11-21T21:46:45.598Z,4.26
2022-11-21T21:49:13.523Z,4.20
2022-11-21T21:51:41.438Z,4.26
2022-11-21T21:54:16.688Z,4.18
2022-11-21T21:56:46.589Z,4.14
2022-11-21T21:59:18.125Z,4.07
2022-11-21T22:01:46.920Z,4.10
2022-11-21T22:04:14.969Z,4.12
2022-11-21T22:06:43.120Z,4.15
2022-11-21T22:09:11.159Z,4.14
2022-11-21T22:11:39.901Z,4.09
2022-11-21T22:14:11.429Z,4.16
2022-11-21T22:16:40.947Z,4.18
2022-11-21T22:19:09.302Z,4.19
2022-11-21T22:21:38.820Z,4.23
2022-11-21T22:24:28.500Z,4.16
2022-11-21T22:26:56.607Z,4.12
2022-11-21T22:29:24.446Z,4.09
2022-11-21T22:31:53.774Z,4.10
2022-11-21T22:34:21.923Z,4.14
2022-11-21T22:36:49.816Z,4.09
2022-11-21T22:39:18.055Z,4.03
2022-11-21T22:41:46.019Z,4.02
2022-11-21T22:44:13.921Z,4.01
2022-11-21T22:46:41.941Z,4.03
2022-11-21T22:49:11.166Z,3.99
2022-11-21T22:51:39.036Z,3.94
2022-11-21T22:54:06.986Z,3.95
2022-11-21T22:56:34.839Z,3.86
2022-11-21T22:59:02.680Z,3.84
2022-11-21T23:01:30.870Z,3.83
2022-11-21T23:03:58.769Z,3.80
2022-11-21T23:06:28.381Z,3.83
2022-11-21T23:08:57.913Z,3.76
2022-11-21T23:11:27.907Z,3.80
2022-11-21T23:13:57.217Z,3.81
2022-11-21T23:16:25.398Z,3.80
2022-11-21T23:18:54.071Z,3.89
2022-11-21T23:21:22.550Z,3.84
2022-11-21T23:23:51.758Z,3.84
2022-11-21T23:26:20.314Z,3.86
2022-11-21T23:28:48.573Z,3.86
2022-11-21T23:31:16.508Z,3.89
2022-11-21T23:33:44.407Z,3.89
2022-11-21T23:36:12.340Z,3.99
2022-11-21T23:38:40.294Z,3.99
2022-11-21T23:41:09.526Z,3.99
2022-11-21T23:43:37.629Z,3.99
2022-11-21T23:46:05.521Z,3.90
2022-11-21T23:48:33.380Z,3.92
2022-11-21T23:51:01.197Z,3.97
2022-11-21T23:53:29.037Z,4.02
2022-11-21T23:55:56.882Z,4.01
